Xifengzhen, China
Current Conditions -  °F | °C
As of 10:00 AM on Sunday 26 Oct 2014 (Local Time) from ZLXY Reporting Station
Haze Haze  
Wind Chill: 64°   Ceiling: Unl
Heat Index: 64°   Visibility: 2.1mi
Dew Point: 54°   Wind: 2mph
Humidity: 68%   Direction: NA
Pressure: 30.15"   Gusts: NA
Location:  35.73°N, 107.63°E
Report Text: ZLXY 260200Z VRB01MPS 3500 HZ NSC 18/12 Q1021 NOSIG
Loading
Personal Weather Stations






























Interactive Weather Map
Tropical Storm Tracking
New forecast layout! Learn more

10-Day Weather Forecast

Advertisements
Track Severe Weather on mobile